sensor_id;sensor_type;location;lat;lon;timestamp;pressure;altitude;pressure_sealevel;temperature;humidity
55263;BME280;41125;48.752;9.168;2022-08-19T00:00:12;96470.75;;;19.84;63.87
55263;BME280;41125;48.752;9.168;2022-08-19T00:00:44;96478.94;;;19.81;63.93
55263;BME280;41125;48.752;9.168;2022-08-19T00:01:15;96473.00;;;19.79;64.25
55263;BME280;41125;48.752;9.168;2022-08-19T00:01:47;96473.78;;;19.79;63.99
55263;BME280;41125;48.752;9.168;2022-08-19T00:02:18;96474.94;;;19.78;64.34
55263;BME280;41125;48.752;9.168;2022-08-19T00:02:49;96479.22;;;19.75;64.25
55263;BME280;41125;48.752;9.168;2022-08-19T00:03:20;96478.44;;;19.75;64.39
55263;BME280;41125;48.752;9.168;2022-08-19T00:03:51;96476.06;;;19.73;64.29
55263;BME280;41125;48.752;9.168;2022-08-19T00:04:24;96476.06;;;19.73;64.56
55263;BME280;41125;48.752;9.168;2022-08-19T00:04:56;96471.34;;;19.74;64.17
55263;BME280;41125;48.752;9.168;2022-08-19T00:05:27;96483.94;;;19.75;64.48
55263;BME280;41125;48.752;9.168;2022-08-19T00:05:57;96476.91;;;19.78;64.15
55263;BME280;41125;48.752;9.168;2022-08-19T00:06:29;96471.37;;;19.78;64.48
55263;BME280;41125;48.752;9.168;2022-08-19T00:07:00;96474.50;;;19.76;64.23
55263;BME280;41125;48.752;9.168;2022-08-19T00:07:31;96469.00;;;19.76;64.18
55263;BME280;41125;48.752;9.168;2022-08-19T00:08:02;96465.09;;;19.77;64.26
55263;BME280;41125;48.752;9.168;2022-08-19T00:08:33;96471.75;;;19.76;64.41
55263;BME280;41125;48.752;9.168;2022-08-19T00:09:05;96472.16;;;19.74;64.44
55263;BME280;41125;48.752;9.168;2022-08-19T00:09:36;96464.25;;;19.73;64.75
55263;BME280;41125;48.752;9.168;2022-08-19T00:10:11;96469.75;;;19.73;64.27
55263;BME280;41125;48.752;9.168;2022-08-19T00:10:45;96474.47;;;19.72;64.25
55263;BME280;41125;48.752;9.168;2022-08-19T00:11:17;96468.16;;;19.72;64.32
55263;BME280;41125;48.752;9.168;2022-08-19T00:11:48;96473.00;;;19.79;64.45
55263;BME280;41125;48.752;9.168;2022-08-19T00:12:19;96472.19;;;19.78;64.14
55263;BME280;41125;48.752;9.168;2022-08-19T00:12:51;96470.59;;;19.77;64.33
55263;BME280;41125;48.752;9.168;2022-08-19T00:13:23;96473.72;;;19.75;64.25
55263;BME280;41125;48.752;9.168;2022-08-19T00:13:54;96472.16;;;19.74;64.47
55263;BME280;41125;48.752;9.168;2022-08-19T00:14:25;96484.72;;;19.75;64.72
55263;BME280;41125;48.752;9.168;2022-08-19T00:14:57;96474.91;;;19.74;64.44
55263;BME280;41125;48.752;9.168;2022-08-19T00:15:27;96486.25;;;19.73;64.42
55263;BME280;41125;48.752;9.168;2022-08-19T00:15:58;96474.47;;;19.72;64.73
55263;BME280;41125;48.752;9.168;2022-08-19T00:16:30;96484.69;;;19.72;64.65
55263;BME280;41125;48.752;9.168;2022-08-19T00:17:01;96476.84;;;19.74;64.69
55263;BME280;41125;48.752;9.168;2022-08-19T00:17:33;96480.75;;;19.73;64.43
55263;BME280;41125;48.752;9.168;2022-08-19T00:18:05;96484.69;;;19.72;64.81
55263;BME280;41125;48.752;9.168;2022-08-19T00:18:36;96474.81;;;19.71;64.48
55263;BME280;41125;48.752;9.168;2022-08-19T00:19:07;96474.38;;;19.69;64.81
55263;BME280;41125;48.752;9.168;2022-08-19T00:19:39;96476.41;;;19.72;64.45
55263;BME280;41125;48.752;9.168;2022-08-19T00:20:12;96480.00;;;19.76;64.39
55263;BME280;41125;48.752;9.168;2022-08-19T00:20:43;96484.78;;;19.79;64.46
55263;BME280;41125;48.752;9.168;2022-08-19T00:21:14;96472.19;;;19.78;64.55
55263;BME280;41125;48.752;9.168;2022-08-19T00:21:46;96484.00;;;19.79;64.50
55263;BME280;41125;48.752;9.168;2022-08-19T00:22:18;96480.88;;;19.80;64.41
55263;BME280;41125;48.752;9.168;2022-08-19T00:22:48;96482.03;;;19.79;64.04
55263;BME280;41125;48.752;9.168;2022-08-19T00:23:20;96484.78;;;19.79;64.36
55263;BME280;41125;48.752;9.168;2022-08-19T00:23:50;96477.69;;;19.78;64.34
55263;BME280;41125;48.752;9.168;2022-08-19T00:24:22;96477.69;;;19.78;64.46
55263;BME280;41125;48.752;9.168;2022-08-19T00:24:53;96486.38;;;19.80;64.44
55263;BME280;41125;48.752;9.168;2022-08-19T00:25:24;96488.72;;;19.78;64.34
55263;BME280;41125;48.752;9.168;2022-08-19T00:25:54;96473.72;;;19.75;64.45
55263;BME280;41125;48.752;9.168;2022-08-19T00:26:26;96478.00;;;19.73;64.28
55263;BME280;41125;48.752;9.168;2022-08-19T00:26:57;96473.66;;;19.72;64.39
55263;BME280;41125;48.752;9.168;2022-08-19T00:27:28;96480.31;;;19.71;64.72
55263;BME280;41125;48.752;9.168;2022-08-19T00:27:59;96474.38;;;19.69;64.45
55263;BME280;41125;48.752;9.168;2022-08-19T00:28:30;96477.50;;;19.67;64.84
55263;BME280;41125;48.752;9.168;2022-08-19T00:29:01;96474.38;;;19.69;64.66
55263;BME280;41125;48.752;9.168;2022-08-19T00:29:32;96476.78;;;19.70;64.89
55263;BME280;41125;48.752;9.168;2022-08-19T00:30:04;96473.59;;;19.68;64.54
55263;BME280;41125;48.752;9.168;2022-08-19T00:30:35;96473.66;;;19.72;64.74
55263;BME280;41125;48.752;9.168;2022-08-19T00:31:09;96472.06;;;19.71;64.82
55263;BME280;41125;48.752;9.168;2022-08-19T00:31:40;96474.38;;;19.69;64.67
55263;BME280;41125;48.752;9.168;2022-08-19T00:32:13;96476.69;;;19.67;64.63
55263;BME280;41125;48.752;9.168;2022-08-19T00:32:44;96474.38;;;19.69;64.78
55263;BME280;41125;48.752;9.168;2022-08-19T00:33:16;96478.44;;;19.75;64.57
55263;BME280;41125;48.752;9.168;2022-08-19T00:33:47;96470.53;;;19.73;64.47
55263;BME280;41125;48.752;9.168;2022-08-19T00:34:21;96468.16;;;19.72;64.62
55263;BME280;41125;48.752;9.168;2022-08-19T00:34:52;96471.72;;;19.72;64.62
55263;BME280;41125;48.752;9.168;2022-08-19T00:35:23;96465.03;;;19.73;64.40
55263;BME280;41125;48.752;9.168;2022-08-19T00:35:54;96466.25;;;19.76;64.70
55263;BME280;41125;48.752;9.168;2022-08-19T00:36:25;96455.66;;;19.78;64.30
55263;BME280;41125;48.752;9.168;2022-08-19T00:36:56;96460.81;;;19.80;64.14
55263;BME280;41125;48.752;9.168;2022-08-19T00:37:27;96456.47;;;19.79;64.41
55263;BME280;41125;48.752;9.168;2022-08-19T00:37:58;96448.94;;;19.75;64.54
55263;BME280;41125;48.752;9.168;2022-08-19T00:38:30;96455.63;;;19.74;64.29
55263;BME280;41125;48.752;9.168;2022-08-19T00:39:01;96456.00;;;19.73;64.67
55263;BME280;41125;48.752;9.168;2022-08-19T00:39:32;96457.16;;;19.72;64.65
55263;BME280;41125;48.752;9.168;2022-08-19T00:40:04;96446.94;;;19.72;64.49
55263;BME280;41125;48.752;9.168;2022-08-19T00:40:36;96456.44;;;19.75;64.33
55263;BME280;41125;48.752;9.168;2022-08-19T00:41:06;96446.56;;;19.74;64.67
55263;BME280;41125;48.752;9.168;2022-08-19T00:41:37;96453.97;;;19.70;64.60
55263;BME280;41125;48.752;9.168;2022-08-19T00:42:09;96450.78;;;19.68;64.85
55263;BME280;41125;48.752;9.168;2022-08-19T00:42:41;96447.59;;;19.66;64.60
55263;BME280;41125;48.752;9.168;2022-08-19T00:43:17;96443.66;;;19.67;65.00
55263;BME280;41125;48.752;9.168;2022-08-19T00:44:06;96448.75;;;19.65;64.89
55263;BME280;41125;48.752;9.168;2022-08-19T00:44:37;96447.94;;;19.64;65.01
55263;BME280;41125;48.752;9.168;2022-08-19T00:45:10;96442.78;;;19.63;64.82
55263;BME280;41125;48.752;9.168;2022-08-19T00:45:41;96455.41;;;19.64;65.08
55263;BME280;41125;48.752;9.168;2022-08-19T00:46:14;96449.91;;;19.64;65.05
55263;BME280;41125;48.752;9.168;2022-08-19T00:46:45;96453.81;;;19.63;64.91
55263;BME280;41125;48.752;9.168;2022-08-19T00:47:17;96449.03;;;19.60;65.22
55263;BME280;41125;48.752;9.168;2022-08-19T00:47:48;96451.78;;;19.60;65.14
55263;BME280;41125;48.752;9.168;2022-08-19T00:48:19;96443.53;;;19.60;65.16
55263;BME280;41125;48.752;9.168;2022-08-19T00:48:51;96449.37;;;19.58;65.24
55263;BME280;41125;48.752;9.168;2022-08-19T00:49:32;96441.94;;;19.59;65.13
55263;BME280;41125;48.752;9.168;2022-08-19T00:50:06;96451.34;;;19.58;65.41
55263;BME280;41125;48.752;9.168;2022-08-19T00:50:39;96452.13;;;19.58;65.42
55263;BME280;41125;48.752;9.168;2022-08-19T00:51:13;96451.34;;;19.58;65.31
55263;BME280;41125;48.752;9.168;2022-08-19T00:51:45;96456.84;;;19.58;65.39
55263;BME280;41125;48.752;9.168;2022-08-19T00:52:35;96457.19;;;19.56;65.18
55263;BME280;41125;48.752;9.168;2022-08-19T00:53:07;96454.38;;;19.53;66.01
55263;BME280;41125;48.752;9.168;2022-08-19T00:53:38;96457.91;;;19.53;65.53
55263;BME280;41125;48.752;9.168;2022-08-19T00:54:10;96461.03;;;19.52;65.51
55263;BME280;41125;48.752;9.168;2022-08-19T00:54:41;96454.38;;;19.53;65.76
55263;BME280;41125;48.752;9.168;2022-08-19T00:55:15;96465.37;;;19.53;65.43
55263;BME280;41125;48.752;9.168;2022-08-19T00:55:50;96465.37;;;19.53;65.47
55263;BME280;41125;48.752;9.168;2022-08-19T00:56:21;96468.12;;;19.53;65.52
55263;BME280;41125;48.752;9.168;2022-08-19T00:56:52;96462.19;;;19.51;65.61
55263;BME280;41125;48.752;9.168;2022-08-19T00:57:28;96469.63;;;19.50;65.96
55263;BME280;41125;48.752;9.168;2022-08-19T00:58:06;96470.78;;;19.49;65.76
55263;BME280;41125;48.752;9.168;2022-08-19T00:58:38;96470.34;;;19.47;65.71
55263;BME280;41125;48.752;9.168;2022-08-19T00:59:10;96464.94;;;19.51;65.67
55263;BME280;41125;48.752;9.168;2022-08-19T00:59:41;96458.28;;;19.52;65.53
55263;BME280;41125;48.752;9.168;2022-08-19T01:00:16;96464.59;;;19.52;65.95
55263;BME280;41125;48.752;9.168;2022-08-19T01:00:48;96469.28;;;19.52;66.39
55263;BME280;41125;48.752;9.168;2022-08-19T01:01:19;96469.28;;;19.52;66.03
55263;BME280;41125;48.752;9.168;2022-08-19T01:01:49;96464.47;;;19.49;66.63
55263;BME280;41125;48.752;9.168;2022-08-19T01:02:20;96473.88;;;19.48;66.70
55263;BME280;41125;48.752;9.168;2022-08-19T01:02:52;96472.28;;;19.47;66.04
55263;BME280;41125;48.752;9.168;2022-08-19T01:03:23;96471.25;;;19.51;66.07
55263;BME280;41125;48.752;9.168;2022-08-19T01:03:54;96466.25;;;19.57;65.45
55263;BME280;41125;48.752;9.168;2022-08-19T01:04:25;96467.06;;;19.57;65.68
55263;BME280;41125;48.752;9.168;2022-08-19T01:04:56;96470.97;;;19.56;65.53
55263;BME280;41125;48.752;9.168;2022-08-19T01:05:27;96470.16;;;19.56;65.51
55263;BME280;41125;48.752;9.168;2022-08-19T01:05:59;96469.72;;;19.54;65.58
55263;BME280;41125;48.752;9.168;2022-08-19T01:06:30;96464.59;;;19.52;65.83
55263;BME280;41125;48.752;9.168;2022-08-19T01:07:03;96469.28;;;19.52;65.63
55263;BME280;41125;48.752;9.168;2022-08-19T01:07:37;96462.19;;;19.51;66.08
55263;BME280;41125;48.752;9.168;2022-08-19T01:08:09;96470.78;;;19.49;66.09
55263;BME280;41125;48.752;9.168;2022-08-19T01:08:40;96467.22;;;19.49;66.06
55263;BME280;41125;48.752;9.168;2022-08-19T01:09:11;96469.19;;;19.48;66.08
55263;BME280;41125;48.752;9.168;2022-08-19T01:09:42;96467.59;;;19.47;65.96
55263;BME280;41125;48.752;9.168;2022-08-19T01:10:14;96465.19;;;19.46;66.20
55263;BME280;41125;48.752;9.168;2022-08-19T01:10:50;96470.69;;;19.46;66.17
55263;BME280;41125;48.752;9.168;2022-08-19T01:11:22;96470.69;;;19.46;66.02
55263;BME280;41125;48.752;9.168;2022-08-19T01:11:52;96472.28;;;19.47;66.21
55263;BME280;41125;48.752;9.168;2022-08-19T01:12:23;96465.19;;;19.46;65.90
55263;BME280;41125;48.752;9.168;2022-08-19T01:12:54;96469.09;;;19.45;65.99
55263;BME280;41125;48.752;9.168;2022-08-19T01:13:27;96470.25;;;19.43;66.04
55263;BME280;41125;48.752;9.168;2022-08-19T01:13:59;96462.00;;;19.43;66.19
55263;BME280;41125;48.752;9.168;2022-08-19T01:14:30;96463.59;;;19.45;65.95
55263;BME280;41125;48.752;9.168;2022-08-19T01:15:02;96466.00;;;19.46;66.49
55263;BME280;41125;48.752;9.168;2022-08-19T01:15:34;96466.34;;;19.45;66.37
55263;BME280;41125;48.752;9.168;2022-08-19T01:16:07;96460.03;;;19.44;66.37
55263;BME280;41125;48.752;9.168;2022-08-19T01:16:38;96458.88;;;19.45;66.16
55263;BME280;41125;48.752;9.168;2022-08-19T01:17:10;96456.50;;;19.43;66.12
55263;BME280;41125;48.752;9.168;2022-08-19T01:17:42;96457.66;;;19.42;66.07
55263;BME280;41125;48.752;9.168;2022-08-19T01:18:14;96453.31;;;19.41;66.16
55263;BME280;41125;48.752;9.168;2022-08-19T01:18:46;96459.69;;;19.46;66.15
55263;BME280;41125;48.752;9.168;2022-08-19T01:19:25;96463.59;;;19.45;66.35
55263;BME280;41125;48.752;9.168;2022-08-19T01:19:57;96459.88;;;19.53;65.65
55263;BME280;41125;48.752;9.168;2022-08-19T01:20:28;96454.00;;;19.54;65.85
55263;BME280;41125;48.752;9.168;2022-08-19T01:21:00;96453.56;;;19.52;65.73
55263;BME280;41125;48.752;9.168;2022-08-19T01:21:40;96453.94;;;19.51;65.92
55263;BME280;41125;48.752;9.168;2022-08-19T01:22:16;96460.56;;;19.50;65.77
55263;BME280;41125;48.752;9.168;2022-08-19T01:22:51;96455.78;;;19.47;66.33
55263;BME280;41125;48.752;9.168;2022-08-19T01:23:23;96458.09;;;19.45;66.44
55263;BME280;41125;48.752;9.168;2022-08-19T01:24:12;96460.84;;;19.45;66.41
55263;BME280;41125;48.752;9.168;2022-08-19T01:24:43;96454.19;;;19.46;66.34
55263;BME280;41125;48.752;9.168;2022-08-19T01:25:15;96463.59;;;19.45;66.06
55263;BME280;41125;48.752;9.168;2022-08-19T01:25:48;96462.00;;;19.43;66.04
55263;BME280;41125;48.752;9.168;2022-08-19T01:26:21;96453.31;;;19.41;66.38
55263;BME280;41125;48.752;9.168;2022-08-19T01:26:52;96457.22;;;19.40;66.59
55263;BME280;41125;48.752;9.168;2022-08-19T01:27:24;96459.56;;;19.38;66.57
55263;BME280;41125;48.752;9.168;2022-08-19T01:27:55;96458.75;;;19.38;66.82
55263;BME280;41125;48.752;9.168;2022-08-19T01:28:26;96461.88;;;19.36;66.37
55263;BME280;41125;48.752;9.168;2022-08-19T01:28:58;96461.88;;;19.36;66.51
55263;BME280;41125;48.752;9.168;2022-08-19T01:29:29;96458.31;;;19.36;66.74
55263;BME280;41125;48.752;9.168;2022-08-19T01:30:00;96454.78;;;19.35;66.59
55263;BME280;41125;48.752;9.168;2022-08-19T01:30:32;96452.81;;;19.36;66.57
55263;BME280;41125;48.752;9.168;2022-08-19T01:31:04;96456.72;;;19.35;66.64
55263;BME280;41125;48.752;9.168;2022-08-19T01:31:35;96447.69;;;19.34;66.89
55263;BME280;41125;48.752;9.168;2022-08-19T01:32:07;96457.09;;;19.33;66.90
55263;BME280;41125;48.752;9.168;2022-08-19T01:32:39;96453.19;;;19.34;66.92
55263;BME280;41125;48.752;9.168;2022-08-19T01:33:11;96449.28;;;19.35;66.57
55263;BME280;41125;48.752;9.168;2022-08-19T01:33:42;96456.00;;;19.38;66.30
55263;BME280;41125;48.752;9.168;2022-08-19T01:34:15;96449.34;;;19.39;66.61
55263;BME280;41125;48.752;9.168;2022-08-19T01:34:47;96451.72;;;19.40;66.25
55263;BME280;41125;48.752;9.168;2022-08-19T01:35:18;96449.41;;;19.42;66.55
55263;BME280;41125;48.752;9.168;2022-08-19T01:35:49;96453.31;;;19.41;66.49
55263;BME280;41125;48.752;9.168;2022-08-19T01:36:35;96448.59;;;19.42;66.42
55263;BME280;41125;48.752;9.168;2022-08-19T01:37:08;96447.44;;;19.43;66.38
55263;BME280;41125;48.752;9.168;2022-08-19T01:37:48;96442.31;;;19.41;66.26
55263;BME280;41125;48.752;9.168;2022-08-19T01:38:21;96454.06;;;19.38;66.68
55263;BME280;41125;48.752;9.168;2022-08-19T01:38:52;96448.13;;;19.36;66.65
55263;BME280;41125;48.752;9.168;2022-08-19T01:39:24;96450.06;;;19.36;66.79
55263;BME280;41125;48.752;9.168;2022-08-19T01:39:56;96449.28;;;19.35;66.71
55263;BME280;41125;48.752;9.168;2022-08-19T01:40:29;96443.78;;;19.35;66.67
55263;BME280;41125;48.752;9.168;2022-08-19T01:41:01;96450.06;;;19.36;66.79
55263;BME280;41125;48.752;9.168;2022-08-19T01:41:32;96445.38;;;19.36;67.07
55263;BME280;41125;48.752;9.168;2022-08-19T01:42:03;96443.84;;;19.39;66.74
55263;BME280;41125;48.752;9.168;2022-08-19T01:42:34;96451.00;;;19.43;66.25
55263;BME280;41125;48.752;9.168;2022-08-19T01:43:05;96447.09;;;19.45;66.17
55263;BME280;41125;48.752;9.168;2022-08-19T01:43:36;96455.34;;;19.45;66.53
55263;BME280;41125;48.752;9.168;2022-08-19T01:44:08;96451.44;;;19.46;66.19
55263;BME280;41125;48.752;9.168;2022-08-19T01:44:40;96447.88;;;19.45;66.04
55263;BME280;41125;48.752;9.168;2022-08-19T01:45:14;96444.69;;;19.43;66.45
55263;BME280;41125;48.752;9.168;2022-08-19T01:45:45;96441.59;;;19.45;66.44
55263;BME280;41125;48.752;9.168;2022-08-19T01:46:16;96446.66;;;19.42;66.28
55263;BME280;41125;48.752;9.168;2022-08-19T01:46:48;96441.16;;;19.42;66.45
55263;BME280;41125;48.752;9.168;2022-08-19T01:47:19;96450.16;;;19.39;66.61
55263;BME280;41125;48.752;9.168;2022-08-19T01:47:50;96451.66;;;19.37;66.32
55263;BME280;41125;48.752;9.168;2022-08-19T01:48:21;96449.28;;;19.35;66.54
55263;BME280;41125;48.752;9.168;2022-08-19T01:48:54;96448.47;;;19.35;66.71
55263;BME280;41125;48.752;9.168;2022-08-19T01:49:25;96446.88;;;19.34;66.72
55263;BME280;41125;48.752;9.168;2022-08-19T01:49:57;96446.09;;;19.33;66.74
55263;BME280;41125;48.752;9.168;2022-08-19T01:50:31;96440.56;;;19.33;66.81
55263;BME280;41125;48.752;9.168;2022-08-19T01:51:03;96445.38;;;19.36;66.43
55263;BME280;41125;48.752;9.168;2022-08-19T01:51:34;96444.22;;;19.37;66.71
55263;BME280;41125;48.752;9.168;2022-08-19T01:52:05;96452.09;;;19.39;66.31
55263;BME280;41125;48.752;9.168;2022-08-19T01:52:37;96448.56;;;19.38;66.54
55263;BME280;41125;48.752;9.168;2022-08-19T01:53:09;96442.25;;;19.38;66.82
55263;BME280;41125;48.752;9.168;2022-08-19T01:53:40;96443.78;;;19.35;66.86
55263;BME280;41125;48.752;9.168;2022-08-19T01:54:12;96448.47;;;19.35;66.85
55263;BME280;41125;48.752;9.168;2022-08-19T01:54:43;96445.38;;;19.36;66.83
55263;BME280;41125;48.752;9.168;2022-08-19T01:55:15;96439.94;;;19.40;66.48
55263;BME280;41125;48.752;9.168;2022-08-19T01:55:46;96446.22;;;19.40;66.69
55263;BME280;41125;48.752;9.168;2022-08-19T01:56:19;96447.41;;;19.39;67.02
55263;BME280;41125;48.752;9.168;2022-08-19T01:56:51;96450.06;;;19.36;67.11
55263;BME280;41125;48.752;9.168;2022-08-19T01:57:23;96446.09;;;19.33;66.83
55263;BME280;41125;48.752;9.168;2022-08-19T01:57:54;96446.09;;;19.33;66.75
55263;BME280;41125;48.752;9.168;2022-08-19T01:58:27;96446.88;;;19.34;67.08
55263;BME280;41125;48.752;9.168;2022-08-19T01:59:02;96451.59;;;19.33;66.83
55263;BME280;41125;48.752;9.168;2022-08-19T01:59:33;96452.38;;;19.34;67.08
55263;BME280;41125;48.752;9.168;2022-08-19T02:00:08;96455.50;;;19.32;66.69
55263;BME280;41125;48.752;9.168;2022-08-19T02:00:39;96446.44;;;19.32;67.07
55263;BME280;41125;48.752;9.168;2022-08-19T02:01:11;96454.69;;;19.32;66.82
55263;BME280;41125;48.752;9.168;2022-08-19T02:01:43;96456.66;;;19.31;66.81
55263;BME280;41125;48.752;9.168;2022-08-19T02:02:13;96448.41;;;19.31;67.14
55263;BME280;41125;48.752;9.168;2022-08-19T02:02:45;96452.31;;;19.30;67.24
55263;BME280;41125;48.752;9.168;2022-08-19T02:03:15;96453.81;;;19.28;67.11
55263;BME280;41125;48.752;9.168;2022-08-19T02:03:46;96453.81;;;19.28;67.09
55263;BME280;41125;48.752;9.168;2022-08-19T02:04:17;96464.03;;;19.27;67.48
55263;BME280;41125;48.752;9.168;2022-08-19T02:04:48;96459.69;;;19.26;67.21
55263;BME280;41125;48.752;9.168;2022-08-19T02:05:19;96455.31;;;19.25;67.25
55263;BME280;41125;48.752;9.168;2022-08-19T02:05:55;96455.31;;;19.25;67.50
55263;BME280;41125;48.752;9.168;2022-08-19T02:06:27;96456.22;;;19.29;67.13
55263;BME280;41125;48.752;9.168;2022-08-19T02:06:58;96455.50;;;19.32;66.84
55263;BME280;41125;48.752;9.168;2022-08-19T02:07:30;96457.09;;;19.33;66.76
55263;BME280;41125;48.752;9.168;2022-08-19T02:08:04;96457.87;;;19.34;67.08
55263;BME280;41125;48.752;9.168;2022-08-19T02:08:36;96456.28;;;19.33;67.04
55263;BME280;41125;48.752;9.168;2022-08-19T02:09:08;96457.44;;;19.32;67.06
55263;BME280;41125;48.752;9.168;2022-08-19T02:09:39;96458.59;;;19.31;66.78
55263;BME280;41125;48.752;9.168;2022-08-19T02:10:13;96458.97;;;19.29;67.23
55263;BME280;41125;48.752;9.168;2022-08-19T02:10:44;96460.12;;;19.28;67.24
55263;BME280;41125;48.752;9.168;2022-08-19T02:11:19;96458.97;;;19.29;67.26
55263;BME280;41125;48.752;9.168;2022-08-19T02:11:51;96455.75;;;19.27;67.70
55263;BME280;41125;48.752;9.168;2022-08-19T02:12:21;96450.97;;;19.24;67.57
55263;BME280;41125;48.752;9.168;2022-08-19T02:12:52;96453.72;;;19.24;67.79
55263;BME280;41125;48.752;9.168;2022-08-19T02:13:24;96449.37;;;19.23;67.91
55263;BME280;41125;48.752;9.168;2022-08-19T02:13:55;96449.75;;;19.22;67.79
55263;BME280;41125;48.752;9.168;2022-08-19T02:14:26;96450.53;;;19.22;68.02
55263;BME280;41125;48.752;9.168;2022-08-19T02:14:58;96450.53;;;19.22;67.61
55263;BME280;41125;48.752;9.168;2022-08-19T02:15:29;96445.84;;;19.23;67.66
55263;BME280;41125;48.752;9.168;2022-08-19T02:16:00;96453.28;;;19.22;67.73
55263;BME280;41125;48.752;9.168;2022-08-19T02:16:31;96445.03;;;19.22;67.82
55263;BME280;41125;48.752;9.168;2022-08-19T02:17:03;96444.25;;;19.22;67.60
55263;BME280;41125;48.752;9.168;2022-08-19T02:17:34;96449.81;;;19.25;67.73
55263;BME280;41125;48.752;9.168;2022-08-19T02:18:05;96449.81;;;19.25;67.60
55263;BME280;41125;48.752;9.168;2022-08-19T02:18:36;96443.53;;;19.25;67.73
55263;BME280;41125;48.752;9.168;2022-08-19T02:19:06;96439.19;;;19.24;67.50
55263;BME280;41125;48.752;9.168;2022-08-19T02:19:37;96452.13;;;19.23;67.62
55263;BME280;41125;48.752;9.168;2022-08-19T02:20:10;96445.47;;;19.24;67.67
55263;BME280;41125;48.752;9.168;2022-08-19T02:20:42;96447.44;;;19.24;67.85
55263;BME280;41125;48.752;9.168;2022-08-19T02:21:13;96443.53;;;19.25;67.47
55263;BME280;41125;48.752;9.168;2022-08-19T02:21:44;96446.81;;;19.30;67.39
55263;BME280;41125;48.752;9.168;2022-08-19T02:22:16;96445.19;;;19.29;67.44
55263;BME280;41125;48.752;9.168;2022-08-19T02:22:51;96451.50;;;19.30;67.25
55263;BME280;41125;48.752;9.168;2022-08-19T02:23:23;96445.19;;;19.29;67.24
55263;BME280;41125;48.752;9.168;2022-08-19T02:23:53;96448.41;;;19.31;67.39
55263;BME280;41125;48.752;9.168;2022-08-19T02:24:26;96440.84;;;19.28;67.40
55263;BME280;41125;48.752;9.168;2022-08-19T02:24:57;96441.28;;;19.30;67.58
55263;BME280;41125;48.752;9.168;2022-08-19T02:25:28;96449.09;;;19.28;67.36
55263;BME280;41125;48.752;9.168;2022-08-19T02:25:59;96449.09;;;19.28;67.56
55263;BME280;41125;48.752;9.168;2022-08-19T02:26:31;96445.91;;;19.26;67.50
55263;BME280;41125;48.752;9.168;2022-08-19T02:27:02;96450.97;;;19.24;67.70
55263;BME280;41125;48.752;9.168;2022-08-19T02:27:33;96452.94;;;19.24;67.59
55263;BME280;41125;48.752;9.168;2022-08-19T02:28:04;96453.28;;;19.22;67.89
55263;BME280;41125;48.752;9.168;2022-08-19T02:28:35;96459.22;;;19.24;67.72
55263;BME280;41125;48.752;9.168;2022-08-19T02:29:07;96457.00;;;19.30;67.40
55263;BME280;41125;48.752;9.168;2022-08-19T02:29:38;96460.12;;;19.28;67.66
55263;BME280;41125;48.752;9.168;2022-08-19T02:30:14;96456.13;;;19.26;67.48
55263;BME280;41125;48.752;9.168;2022-08-19T02:30:46;96461.19;;;19.24;67.44
55263;BME280;41125;48.752;9.168;2022-08-19T02:31:21;96464.66;;;19.21;67.85
55263;BME280;41125;48.752;9.168;2022-08-19T02:31:52;96462.25;;;19.19;68.04
55263;BME280;41125;48.752;9.168;2022-08-19T02:32:26;96460.66;;;19.18;68.18
55263;BME280;41125;48.752;9.168;2022-08-19T02:32:57;96458.63;;;19.15;68.24
55263;BME280;41125;48.752;9.168;2022-08-19T02:33:28;96458.63;;;19.15;68.26
55263;BME280;41125;48.752;9.168;2022-08-19T02:33:59;96462.19;;;19.16;68.20
55263;BME280;41125;48.752;9.168;2022-08-19T02:34:30;96459.06;;;19.17;68.32
55263;BME280;41125;48.752;9.168;2022-08-19T02:35:00;96460.66;;;19.18;68.28
55263;BME280;41125;48.752;9.168;2022-08-19T02:35:32;96464.56;;;19.17;68.16
55263;BME280;41125;48.752;9.168;2022-08-19T02:36:03;96459.88;;;19.18;68.15
55263;BME280;41125;48.752;9.168;2022-08-19T02:36:35;96467.31;;;19.17;68.08
55263;BME280;41125;48.752;9.168;2022-08-19T02:37:06;96453.56;;;19.17;68.12
55263;BME280;41125;48.752;9.168;2022-08-19T02:37:57;96457.47;;;19.16;68.11
55263;BME280;41125;48.752;9.168;2022-08-19T02:38:46;96450.81;;;19.17;67.94
55263;BME280;41125;48.752;9.168;2022-08-19T02:39:17;96461.03;;;19.17;67.93
55263;BME280;41125;48.752;9.168;2022-08-19T02:39:49;96453.56;;;19.17;68.21
55263;BME280;41125;48.752;9.168;2022-08-19T02:40:21;96459.06;;;19.17;68.47
55263;BME280;41125;48.752;9.168;2022-08-19T02:40:53;96459.88;;;19.18;68.07
55263;BME280;41125;48.752;9.168;2022-08-19T02:41:25;96453.56;;;19.17;68.27
55263;BME280;41125;48.752;9.168;2022-08-19T02:41:57;96458.28;;;19.17;68.25
55263;BME280;41125;48.752;9.168;2022-08-19T02:42:30;96462.19;;;19.16;68.11
55263;BME280;41125;48.752;9.168;2022-08-19T02:43:03;96452.69;;;19.13;67.94
55263;BME280;41125;48.752;9.168;2022-08-19T02:43:36;96464.50;;;19.14;68.41
55263;BME280;41125;48.752;9.168;2022-08-19T02:44:09;96459.78;;;19.14;68.25
55263;BME280;41125;48.752;9.168;2022-08-19T02:44:39;96451.97;;;19.16;68.37
55263;BME280;41125;48.752;9.168;2022-08-19T02:45:11;96459.16;;;19.21;68.02
55263;BME280;41125;48.752;9.168;2022-08-19T02:45:42;96451.69;;;19.21;67.92
55263;BME280;41125;48.752;9.168;2022-08-19T02:46:14;96452.13;;;19.23;68.10
55263;BME280;41125;48.752;9.168;2022-08-19T02:46:46;96458.00;;;19.22;67.89
55263;BME280;41125;48.752;9.168;2022-08-19T02:47:18;96453.66;;;19.21;68.04
55263;BME280;41125;48.752;9.168;2022-08-19T02:47:49;96447.78;;;19.22;68.38
55263;BME280;41125;48.752;9.168;2022-08-19T02:48:20;96451.25;;;19.19;68.23
55263;BME280;41125;48.752;9.168;2022-08-19T02:48:53;96452.78;;;19.17;68.47
55263;BME280;41125;48.752;9.168;2022-08-19T02:49:24;96452.69;;;19.13;68.34
55263;BME280;41125;48.752;9.168;2022-08-19T02:49:55;96446.03;;;19.14;68.45
55263;BME280;41125;48.752;9.168;2022-08-19T02:50:25;96447.97;;;19.14;68.21